K88

Allen County Airport

Iola, Kansas, USA
METAR KK88 261255Z AUTO 00000KT 7SM CLR 08/08 A3003 RMK AO1 T00780075
Observed Flight Rules
Apr-26 @ 12:55 UTC (33 minutes ago) Visual Flight Rules
Visibility Clouds
7 miles
  • Clear skies
Temperatures Readings
Current 8°C / 46°F
Dewpoint 8°C / 46°F
Humidity 100%
Altimeter 30.03" Hg
Pressure 1017 hPa
Elevation 309
METAR KK88 261255Z AUTO 00000KT 7SM CLR 08/08 A3003 RMK AO1 T00780075
Observed Flight Rules
Apr-26 @ 12:55 UTC
(33 minutes ago)
VFR
Clouds
  • Clear skies
Temperature Dewpoint
8°C / 46°F 8°C / 46°F
Humidity Altimeter Pressure
100% 30.03" Hg 1017 hPa